sensor_id;sensor_type;location;lat;lon;timestamp;P1;P2;P0
79537;PMS5003;68989;52.032;5.152;2023-04-24T00:01:13;1;1;
79537;PMS5003;68989;52.032;5.152;2023-04-24T00:03:40;2;2;
79537;PMS5003;68989;52.032;5.152;2023-04-24T00:06:07;2;2;
79537;PMS5003;68989;52.032;5.152;2023-04-24T00:08:34;4;3;
79537;PMS5003;68989;52.032;5.152;2023-04-24T00:11:01;3;2;
79537;PMS5003;68989;52.032;5.152;2023-04-24T00:13:28;2;2;
79537;PMS5003;68989;52.032;5.152;2023-04-24T00:15:54;2;2;
79537;PMS5003;68989;52.032;5.152;2023-04-24T00:18:21;2;2;
79537;PMS5003;68989;52.032;5.152;2023-04-24T00:20:48;4;2;
79537;PMS5003;68989;52.032;5.152;2023-04-24T00:23:15;3;3;
79537;PMS5003;68989;52.032;5.152;2023-04-24T00:25:42;2;2;
79537;PMS5003;68989;52.032;5.152;2023-04-24T00:28:09;4;4;
79537;PMS5003;68989;52.032;5.152;2023-04-24T00:30:35;3;2;
79537;PMS5003;68989;52.032;5.152;2023-04-24T00:33:02;3;3;
79537;PMS5003;68989;52.032;5.152;2023-04-24T00:35:29;3;3;
79537;PMS5003;68989;52.032;5.152;2023-04-24T00:37:56;3;3;
79537;PMS5003;68989;52.032;5.152;2023-04-24T00:40:23;3;3;
79537;PMS5003;68989;52.032;5.152;2023-04-24T00:42:50;4;3;
79537;PMS5003;68989;52.032;5.152;2023-04-24T00:45:17;3;3;
79537;PMS5003;68989;52.032;5.152;2023-04-24T00:47:43;3;3;
79537;PMS5003;68989;52.032;5.152;2023-04-24T00:50:14;3;3;
79537;PMS5003;68989;52.032;5.152;2023-04-24T00:52:42;4;4;
79537;PMS5003;68989;52.032;5.152;2023-04-24T00:55:09;7;5;
79537;PMS5003;68989;52.032;5.152;2023-04-24T00:57:37;5;5;
79537;PMS5003;68989;52.032;5.152;2023-04-24T01:00:04;4;4;
79537;PMS5003;68989;52.032;5.152;2023-04-24T01:02:32;4;4;
79537;PMS5003;68989;52.032;5.152;2023-04-24T01:04:59;4;4;
79537;PMS5003;68989;52.032;5.152;2023-04-24T01:07:27;5;4;
79537;PMS5003;68989;52.032;5.152;2023-04-24T01:09:54;5;5;
79537;PMS5003;68989;52.032;5.152;2023-04-24T01:12:21;5;5;
79537;PMS5003;68989;52.032;5.152;2023-04-24T01:14:48;5;5;
79537;PMS5003;68989;52.032;5.152;2023-04-24T01:17:16;4;4;
79537;PMS5003;68989;52.032;5.152;2023-04-24T01:19:42;5;5;
79537;PMS5003;68989;52.032;5.152;2023-04-24T01:22:10;5;5;
79537;PMS5003;68989;52.032;5.152;2023-04-24T01:24:39;5;5;
79537;PMS5003;68989;52.032;5.152;2023-04-24T01:27:06;4;4;
79537;PMS5003;68989;52.032;5.152;2023-04-24T01:29:34;7;5;
79537;PMS5003;68989;52.032;5.152;2023-04-24T01:32:01;5;5;
79537;PMS5003;68989;52.032;5.152;2023-04-24T01:34:30;4;4;
79537;PMS5003;68989;52.032;5.152;2023-04-24T01:36:57;6;5;
79537;PMS5003;68989;52.032;5.152;2023-04-24T01:39:25;4;3;
79537;PMS5003;68989;52.032;5.152;2023-04-24T01:41:53;7;6;
79537;PMS5003;68989;52.032;5.152;2023-04-24T01:44:21;4;4;
79537;PMS5003;68989;52.032;5.152;2023-04-24T01:46:48;6;6;
79537;PMS5003;68989;52.032;5.152;2023-04-24T01:49:16;6;5;
79537;PMS5003;68989;52.032;5.152;2023-04-24T01:51:43;7;7;
79537;PMS5003;68989;52.032;5.152;2023-04-24T01:54:10;4;3;
79537;PMS5003;68989;52.032;5.152;2023-04-24T01:56:36;5;5;
79537;PMS5003;68989;52.032;5.152;2023-04-24T01:59:09;4;4;
79537;PMS5003;68989;52.032;5.152;2023-04-24T02:01:38;5;5;
79537;PMS5003;68989;52.032;5.152;2023-04-24T02:04:06;7;7;
79537;PMS5003;68989;52.032;5.152;2023-04-24T02:06:34;6;6;
79537;PMS5003;68989;52.032;5.152;2023-04-24T02:09:01;7;6;
79537;PMS5003;68989;52.032;5.152;2023-04-24T02:11:28;5;5;
79537;PMS5003;68989;52.032;5.152;2023-04-24T02:13:55;5;4;
79537;PMS5003;68989;52.032;5.152;2023-04-24T02:16:22;3;3;
79537;PMS5003;68989;52.032;5.152;2023-04-24T02:18:49;4;4;
79537;PMS5003;68989;52.032;5.152;2023-04-24T02:21:15;5;5;
79537;PMS5003;68989;52.032;5.152;2023-04-24T02:23:42;4;4;
79537;PMS5003;68989;52.032;5.152;2023-04-24T02:26:09;5;5;
79537;PMS5003;68989;52.032;5.152;2023-04-24T02:28:37;4;4;
79537;PMS5003;68989;52.032;5.152;2023-04-24T02:31:04;5;4;
79537;PMS5003;68989;52.032;5.152;2023-04-24T02:33:31;4;4;
79537;PMS5003;68989;52.032;5.152;2023-04-24T02:35:57;6;6;
79537;PMS5003;68989;52.032;5.152;2023-04-24T02:38:24;4;4;
79537;PMS5003;68989;52.032;5.152;2023-04-24T02:40:51;3;3;
79537;PMS5003;68989;52.032;5.152;2023-04-24T02:43:18;6;4;
79537;PMS5003;68989;52.032;5.152;2023-04-24T02:45:45;6;4;
79537;PMS5003;68989;52.032;5.152;2023-04-24T02:48:12;6;6;
79537;PMS5003;68989;52.032;5.152;2023-04-24T02:50:38;7;7;
79537;PMS5003;68989;52.032;5.152;2023-04-24T02:53:05;5;5;
79537;PMS5003;68989;52.032;5.152;2023-04-24T02:55:32;5;5;
79537;PMS5003;68989;52.032;5.152;2023-04-24T02:57:59;7;7;
79537;PMS5003;68989;52.032;5.152;2023-04-24T03:00:26;8;6;
79537;PMS5003;68989;52.032;5.152;2023-04-24T03:02:53;6;6;
79537;PMS5003;68989;52.032;5.152;2023-04-24T03:05:20;7;7;
79537;PMS5003;68989;52.032;5.152;2023-04-24T03:07:47;7;6;
79537;PMS5003;68989;52.032;5.152;2023-04-24T03:10:13;5;5;
79537;PMS5003;68989;52.032;5.152;2023-04-24T03:12:40;5;5;
79537;PMS5003;68989;52.032;5.152;2023-04-24T03:15:08;5;5;
79537;PMS5003;68989;52.032;5.152;2023-04-24T03:17:35;8;7;
79537;PMS5003;68989;52.032;5.152;2023-04-24T03:20:02;6;6;
79537;PMS5003;68989;52.032;5.152;2023-04-24T03:22:29;8;6;
79537;PMS5003;68989;52.032;5.152;2023-04-24T03:24:56;6;6;
79537;PMS5003;68989;52.032;5.152;2023-04-24T03:27:23;6;6;
79537;PMS5003;68989;52.032;5.152;2023-04-24T03:29:50;5;5;
79537;PMS5003;68989;52.032;5.152;2023-04-24T03:32:17;4;4;
79537;PMS5003;68989;52.032;5.152;2023-04-24T03:34:44;5;5;
79537;PMS5003;68989;52.032;5.152;2023-04-24T03:37:11;6;6;
79537;PMS5003;68989;52.032;5.152;2023-04-24T03:39:37;5;5;
79537;PMS5003;68989;52.032;5.152;2023-04-24T03:42:04;8;6;
79537;PMS5003;68989;52.032;5.152;2023-04-24T03:44:31;6;6;
79537;PMS5003;68989;52.032;5.152;2023-04-24T03:46:58;6;6;
79537;PMS5003;68989;52.032;5.152;2023-04-24T03:49:25;8;8;
79537;PMS5003;68989;52.032;5.152;2023-04-24T03:51:52;7;7;
79537;PMS5003;68989;52.032;5.152;2023-04-24T03:54:19;6;6;
79537;PMS5003;68989;52.032;5.152;2023-04-24T03:56:45;5;5;
79537;PMS5003;68989;52.032;5.152;2023-04-24T03:59:12;4;4;
79537;PMS5003;68989;52.032;5.152;2023-04-24T04:01:39;6;6;
79537;PMS5003;68989;52.032;5.152;2023-04-24T04:04:06;7;6;
79537;PMS5003;68989;52.032;5.152;2023-04-24T04:06:33;6;6;
79537;PMS5003;68989;52.032;5.152;2023-04-24T04:09:00;7;7;
79537;PMS5003;68989;52.032;5.152;2023-04-24T04:11:27;6;6;
79537;PMS5003;68989;52.032;5.152;2023-04-24T04:13:54;6;4;
79537;PMS5003;68989;52.032;5.152;2023-04-24T04:16:20;5;5;
79537;PMS5003;68989;52.032;5.152;2023-04-24T04:18:47;5;5;
79537;PMS5003;68989;52.032;5.152;2023-04-24T04:21:14;4;4;
79537;PMS5003;68989;52.032;5.152;2023-04-24T04:23:41;4;4;
79537;PMS5003;68989;52.032;5.152;2023-04-24T04:26:08;4;4;
79537;PMS5003;68989;52.032;5.152;2023-04-24T04:28:35;4;4;
79537;PMS5003;68989;52.032;5.152;2023-04-24T04:31:01;5;4;
79537;PMS5003;68989;52.032;5.152;2023-04-24T04:33:28;4;4;
79537;PMS5003;68989;52.032;5.152;2023-04-24T04:35:57;3;3;
79537;PMS5003;68989;52.032;5.152;2023-04-24T04:38:24;4;3;
79537;PMS5003;68989;52.032;5.152;2023-04-24T04:40:51;3;3;
79537;PMS5003;68989;52.032;5.152;2023-04-24T04:43:18;3;3;
79537;PMS5003;68989;52.032;5.152;2023-04-24T04:45:44;2;2;
79537;PMS5003;68989;52.032;5.152;2023-04-24T04:48:11;2;2;
79537;PMS5003;68989;52.032;5.152;2023-04-24T04:50:38;2;2;
79537;PMS5003;68989;52.032;5.152;2023-04-24T04:53:05;3;2;
79537;PMS5003;68989;52.032;5.152;2023-04-24T04:55:32;1;1;
79537;PMS5003;68989;52.032;5.152;2023-04-24T04:57:59;2;2;
79537;PMS5003;68989;52.032;5.152;2023-04-24T05:00:26;5;3;
79537;PMS5003;68989;52.032;5.152;2023-04-24T05:02:52;3;2;
79537;PMS5003;68989;52.032;5.152;2023-04-24T05:05:19;1;1;
79537;PMS5003;68989;52.032;5.152;2023-04-24T05:07:46;1;1;
79537;PMS5003;68989;52.032;5.152;2023-04-24T05:10:13;3;2;
79537;PMS5003;68989;52.032;5.152;2023-04-24T05:12:40;2;2;
79537;PMS5003;68989;52.032;5.152;2023-04-24T05:15:07;2;2;
79537;PMS5003;68989;52.032;5.152;2023-04-24T05:17:35;4;2;
79537;PMS5003;68989;52.032;5.152;2023-04-24T05:20:02;1;1;
79537;PMS5003;68989;52.032;5.152;2023-04-24T05:22:30;2;2;
79537;PMS5003;68989;52.032;5.152;2023-04-24T05:24:57;1;1;
79537;PMS5003;68989;52.032;5.152;2023-04-24T05:27:24;1;1;
79537;PMS5003;68989;52.032;5.152;2023-04-24T05:29:51;1;1;
79537;PMS5003;68989;52.032;5.152;2023-04-24T05:32:18;1;1;
79537;PMS5003;68989;52.032;5.152;2023-04-24T05:34:45;1;1;
79537;PMS5003;68989;52.032;5.152;2023-04-24T05:37:12;0;0;
79537;PMS5003;68989;52.032;5.152;2023-04-24T05:39:39;0;0;
79537;PMS5003;68989;52.032;5.152;2023-04-24T05:42:05;1;1;
79537;PMS5003;68989;52.032;5.152;2023-04-24T05:44:32;2;1;
79537;PMS5003;68989;52.032;5.152;2023-04-24T05:46:59;0;0;
79537;PMS5003;68989;52.032;5.152;2023-04-24T05:49:26;1;1;
79537;PMS5003;68989;52.032;5.152;2023-04-24T05:51:53;1;1;
79537;PMS5003;68989;52.032;5.152;2023-04-24T05:54:20;1;1;
79537;PMS5003;68989;52.032;5.152;2023-04-24T05:56:47;1;1;
79537;PMS5003;68989;52.032;5.152;2023-04-24T05:59:15;1;1;
79537;PMS5003;68989;52.032;5.152;2023-04-24T06:01:42;2;0;
79537;PMS5003;68989;52.032;5.152;2023-04-24T06:04:09;1;1;
79537;PMS5003;68989;52.032;5.152;2023-04-24T06:06:36;1;1;
79537;PMS5003;68989;52.032;5.152;2023-04-24T06:09:03;1;1;
79537;PMS5003;68989;52.032;5.152;2023-04-24T06:11:29;0;0;
79537;PMS5003;68989;52.032;5.152;2023-04-24T06:13:56;1;1;
79537;PMS5003;68989;52.032;5.152;2023-04-24T06:16:23;2;2;
79537;PMS5003;68989;52.032;5.152;2023-04-24T06:18:50;1;1;
79537;PMS5003;68989;52.032;5.152;2023-04-24T06:21:17;2;2;
79537;PMS5003;68989;52.032;5.152;2023-04-24T06:23:44;4;4;
79537;PMS5003;68989;52.032;5.152;2023-04-24T06:26:11;7;7;
79537;PMS5003;68989;52.032;5.152;2023-04-24T06:28:38;7;7;
79537;PMS5003;68989;52.032;5.152;2023-04-24T06:31:05;11;11;
79537;PMS5003;68989;52.032;5.152;2023-04-24T06:33:32;12;12;
79537;PMS5003;68989;52.032;5.152;2023-04-24T06:36:00;15;14;
79537;PMS5003;68989;52.032;5.152;2023-04-24T06:38:27;16;14;
79537;PMS5003;68989;52.032;5.152;2023-04-24T06:40:55;14;12;
79537;PMS5003;68989;52.032;5.152;2023-04-24T06:43:22;20;19;
79537;PMS5003;68989;52.032;5.152;2023-04-24T06:45:49;13;13;
79537;PMS5003;68989;52.032;5.152;2023-04-24T06:48:17;18;17;
79537;PMS5003;68989;52.032;5.152;2023-04-24T06:50:43;18;15;
79537;PMS5003;68989;52.032;5.152;2023-04-24T06:53:10;18;17;
79537;PMS5003;68989;52.032;5.152;2023-04-24T06:55:37;19;16;
79537;PMS5003;68989;52.032;5.152;2023-04-24T06:58:04;17;16;
79537;PMS5003;68989;52.032;5.152;2023-04-24T07:00:31;20;17;
79537;PMS5003;68989;52.032;5.152;2023-04-24T07:02:58;22;19;
79537;PMS5003;68989;52.032;5.152;2023-04-24T07:05:25;19;18;
79537;PMS5003;68989;52.032;5.152;2023-04-24T07:07:52;20;19;
79537;PMS5003;68989;52.032;5.152;2023-04-24T07:10:19;16;16;
79537;PMS5003;68989;52.032;5.152;2023-04-24T07:12:46;22;19;
79537;PMS5003;68989;52.032;5.152;2023-04-24T07:15:13;21;19;
79537;PMS5003;68989;52.032;5.152;2023-04-24T07:17:40;21;17;
79537;PMS5003;68989;52.032;5.152;2023-04-24T07:20:08;15;14;
79537;PMS5003;68989;52.032;5.152;2023-04-24T07:22:36;20;17;
79537;PMS5003;68989;52.032;5.152;2023-04-24T07:25:04;21;16;
79537;PMS5003;68989;52.032;5.152;2023-04-24T07:27:31;15;15;
79537;PMS5003;68989;52.032;5.152;2023-04-24T07:29:59;18;17;
79537;PMS5003;68989;52.032;5.152;2023-04-24T07:32:26;16;16;
79537;PMS5003;68989;52.032;5.152;2023-04-24T07:34:53;17;17;
79537;PMS5003;68989;52.032;5.152;2023-04-24T07:37:20;16;14;
79537;PMS5003;68989;52.032;5.152;2023-04-24T07:39:47;15;14;
79537;PMS5003;68989;52.032;5.152;2023-04-24T07:42:14;15;13;
79537;PMS5003;68989;52.032;5.152;2023-04-24T07:44:41;16;14;
79537;PMS5003;68989;52.032;5.152;2023-04-24T07:47:08;13;13;
79537;PMS5003;68989;52.032;5.152;2023-04-24T07:49:35;13;12;
79537;PMS5003;68989;52.032;5.152;2023-04-24T07:52:02;13;12;
79537;PMS5003;68989;52.032;5.152;2023-04-24T07:54:29;14;12;
79537;PMS5003;68989;52.032;5.152;2023-04-24T07:56:56;10;9;
79537;PMS5003;68989;52.032;5.152;2023-04-24T07:59:23;8;8;
79537;PMS5003;68989;52.032;5.152;2023-04-24T08:01:50;10;10;
79537;PMS5003;68989;52.032;5.152;2023-04-24T08:04:17;12;10;
79537;PMS5003;68989;52.032;5.152;2023-04-24T08:06:44;9;9;
79537;PMS5003;68989;52.032;5.152;2023-04-24T08:09:13;9;8;
79537;PMS5003;68989;52.032;5.152;2023-04-24T08:11:40;11;9;
79537;PMS5003;68989;52.032;5.152;2023-04-24T08:14:08;11;11;
79537;PMS5003;68989;52.032;5.152;2023-04-24T08:16:35;7;7;
79537;PMS5003;68989;52.032;5.152;2023-04-24T08:19:03;11;10;
79537;PMS5003;68989;52.032;5.152;2023-04-24T08:21:30;7;5;
79537;PMS5003;68989;52.032;5.152;2023-04-24T08:23:57;6;6;
79537;PMS5003;68989;52.032;5.152;2023-04-24T08:26:24;6;6;
79537;PMS5003;68989;52.032;5.152;2023-04-24T08:28:51;8;7;
79537;PMS5003;68989;52.032;5.152;2023-04-24T08:31:19;5;5;
79537;PMS5003;68989;52.032;5.152;2023-04-24T08:33:46;8;4;
79537;PMS5003;68989;52.032;5.152;2023-04-24T08:36:13;4;4;
79537;PMS5003;68989;52.032;5.152;2023-04-24T08:38:40;7;7;
79537;PMS5003;68989;52.032;5.152;2023-04-24T08:41:08;5;5;
79537;PMS5003;68989;52.032;5.152;2023-04-24T08:43:36;8;5;
79537;PMS5003;68989;52.032;5.152;2023-04-24T08:46:04;6;6;
79537;PMS5003;68989;52.032;5.152;2023-04-24T08:48:31;5;5;
79537;PMS5003;68989;52.032;5.152;2023-04-24T08:50:58;6;6;
79537;PMS5003;68989;52.032;5.152;2023-04-24T08:53:26;5;5;
79537;PMS5003;68989;52.032;5.152;2023-04-24T08:55:54;7;5;
79537;PMS5003;68989;52.032;5.152;2023-04-24T08:58:22;6;5;
79537;PMS5003;68989;52.032;5.152;2023-04-24T09:00:51;4;4;
79537;PMS5003;68989;52.032;5.152;2023-04-24T09:03:21;5;5;
79537;PMS5003;68989;52.032;5.152;2023-04-24T09:05:48;7;5;
79537;PMS5003;68989;52.032;5.152;2023-04-24T09:08:17;7;6;
79537;PMS5003;68989;52.032;5.152;2023-04-24T09:10:45;6;6;
79537;PMS5003;68989;52.032;5.152;2023-04-24T09:13:13;3;3;
79537;PMS5003;68989;52.032;5.152;2023-04-24T09:15:41;5;5;
79537;PMS5003;68989;52.032;5.152;2023-04-24T09:18:09;4;4;
79537;PMS5003;68989;52.032;5.152;2023-04-24T09:20:41;4;4;
79537;PMS5003;68989;52.032;5.152;2023-04-24T09:23:25;7;5;
79537;PMS5003;68989;52.032;5.152;2023-04-24T09:25:54;5;5;
79537;PMS5003;68989;52.032;5.152;2023-04-24T09:28:25;6;5;
79537;PMS5003;68989;52.032;5.152;2023-04-24T09:31:01;6;6;
79537;PMS5003;68989;52.032;5.152;2023-04-24T09:33:31;7;6;
79537;PMS5003;68989;52.032;5.152;2023-04-24T09:35:58;6;6;
79537;PMS5003;68989;52.032;5.152;2023-04-24T09:38:30;5;5;
79537;PMS5003;68989;52.032;5.152;2023-04-24T09:40:59;5;5;
79537;PMS5003;68989;52.032;5.152;2023-04-24T09:43:26;6;6;
79537;PMS5003;68989;52.032;5.152;2023-04-24T09:45:55;4;4;
79537;PMS5003;68989;52.032;5.152;2023-04-24T09:48:29;7;5;
79537;PMS5003;68989;52.032;5.152;2023-04-24T09:50:56;5;5;
79537;PMS5003;68989;52.032;5.152;2023-04-24T09:53:23;4;4;
79537;PMS5003;68989;52.032;5.152;2023-04-24T09:55:51;5;5;
79537;PMS5003;68989;52.032;5.152;2023-04-24T09:58:18;4;4;
79537;PMS5003;68989;52.032;5.152;2023-04-24T10:00:53;5;3;
79537;PMS5003;68989;52.032;5.152;2023-04-24T10:03:20;5;4;
79537;PMS5003;68989;52.032;5.152;2023-04-24T10:05:51;4;4;
79537;PMS5003;68989;52.032;5.152;2023-04-24T10:08:18;3;3;
79537;PMS5003;68989;52.032;5.152;2023-04-24T10:10:46;5;4;
79537;PMS5003;68989;52.032;5.152;2023-04-24T10:13:14;3;3;
79537;PMS5003;68989;52.032;5.152;2023-04-24T10:15:41;4;3;
79537;PMS5003;68989;52.032;5.152;2023-04-24T10:18:09;4;3;
79537;PMS5003;68989;52.032;5.152;2023-04-24T10:20:38;6;4;
79537;PMS5003;68989;52.032;5.152;2023-04-24T10:23:06;2;2;
79537;PMS5003;68989;52.032;5.152;2023-04-24T10:25:34;4;4;
79537;PMS5003;68989;52.032;5.152;2023-04-24T10:28:03;3;3;
79537;PMS5003;68989;52.032;5.152;2023-04-24T10:30:31;2;2;
79537;PMS5003;68989;52.032;5.152;2023-04-24T10:32:59;2;2;
79537;PMS5003;68989;52.032;5.152;2023-04-24T10:35:25;1;1;
79537;PMS5003;68989;52.032;5.152;2023-04-24T10:37:54;5;3;
79537;PMS5003;68989;52.032;5.152;2023-04-24T10:40:26;3;3;
79537;PMS5003;68989;52.032;5.152;2023-04-24T10:42:54;1;1;
79537;PMS5003;68989;52.032;5.152;2023-04-24T10:45:23;1;1;
79537;PMS5003;68989;52.032;5.152;2023-04-24T10:47:52;7;4;
79537;PMS5003;68989;52.032;5.152;2023-04-24T10:50:22;1;1;
79537;PMS5003;68989;52.032;5.152;2023-04-24T10:52:49;3;1;
79537;PMS5003;68989;52.032;5.152;2023-04-24T10:55:16;1;1;
79537;PMS5003;68989;52.032;5.152;2023-04-24T10:58:05;2;0;
79537;PMS5003;68989;52.032;5.152;2023-04-24T11:00:32;0;0;
79537;PMS5003;68989;52.032;5.152;2023-04-24T11:03:03;1;1;
79537;PMS5003;68989;52.032;5.152;2023-04-24T11:05:49;1;1;
79537;PMS5003;68989;52.032;5.152;2023-04-24T11:08:22;1;1;
79537;PMS5003;68989;52.032;5.152;2023-04-24T11:10:56;3;3;
79537;PMS5003;68989;52.032;5.152;2023-04-24T11:13:25;1;1;
79537;PMS5003;68989;52.032;5.152;2023-04-24T11:16:27;4;1;
79537;PMS5003;68989;52.032;5.152;2023-04-24T11:19:00;2;2;
79537;PMS5003;68989;52.032;5.152;2023-04-24T11:21:30;1;1;
79537;PMS5003;68989;52.032;5.152;2023-04-24T11:23:58;1;1;
79537;PMS5003;68989;52.032;5.152;2023-04-24T11:26:51;0;0;
79537;PMS5003;68989;52.032;5.152;2023-04-24T11:29:19;1;1;
79537;PMS5003;68989;52.032;5.152;2023-04-24T11:31:47;2;1;
79537;PMS5003;68989;52.032;5.152;2023-04-24T11:34:14;1;1;
79537;PMS5003;68989;52.032;5.152;2023-04-24T11:36:42;3;1;
79537;PMS5003;68989;52.032;5.152;2023-04-24T11:39:09;0;0;
79537;PMS5003;68989;52.032;5.152;2023-04-24T11:41:36;2;2;
79537;PMS5003;68989;52.032;5.152;2023-04-24T11:44:05;1;1;
79537;PMS5003;68989;52.032;5.152;2023-04-24T11:46:33;0;0;
79537;PMS5003;68989;52.032;5.152;2023-04-24T11:49:00;2;2;
79537;PMS5003;68989;52.032;5.152;2023-04-24T11:51:27;1;1;
79537;PMS5003;68989;52.032;5.152;2023-04-24T11:53:54;2;1;
79537;PMS5003;68989;52.032;5.152;2023-04-24T11:56:21;1;1;
79537;PMS5003;68989;52.032;5.152;2023-04-24T11:58:51;1;1;
79537;PMS5003;68989;52.032;5.152;2023-04-24T12:01:18;2;0;
79537;PMS5003;68989;52.032;5.152;2023-04-24T12:03:47;0;0;
79537;PMS5003;68989;52.032;5.152;2023-04-24T12:06:15;1;1;
79537;PMS5003;68989;52.032;5.152;2023-04-24T12:08:41;1;1;
79537;PMS5003;68989;52.032;5.152;2023-04-24T12:11:14;1;1;
79537;PMS5003;68989;52.032;5.152;2023-04-24T12:13:43;3;2;
79537;PMS5003;68989;52.032;5.152;2023-04-24T12:16:11;1;1;
79537;PMS5003;68989;52.032;5.152;2023-04-24T12:18:42;1;1;
79537;PMS5003;68989;52.032;5.152;2023-04-24T12:21:17;2;2;
79537;PMS5003;68989;52.032;5.152;2023-04-24T12:23:46;4;3;
79537;PMS5003;68989;52.032;5.152;2023-04-24T12:26:16;2;2;
79537;PMS5003;68989;52.032;5.152;2023-04-24T12:28:46;2;2;
79537;PMS5003;68989;52.032;5.152;2023-04-24T12:31:15;4;2;
79537;PMS5003;68989;52.032;5.152;2023-04-24T12:33:42;3;3;
79537;PMS5003;68989;52.032;5.152;2023-04-24T12:36:10;2;2;
79537;PMS5003;68989;52.032;5.152;2023-04-24T12:38:37;2;2;
79537;PMS5003;68989;52.032;5.152;2023-04-24T12:41:06;2;0;
79537;PMS5003;68989;52.032;5.152;2023-04-24T12:43:33;4;3;
79537;PMS5003;68989;52.032;5.152;2023-04-24T12:46:01;3;2;
79537;PMS5003;68989;52.032;5.152;2023-04-24T12:48:28;2;2;
79537;PMS5003;68989;52.032;5.152;2023-04-24T12:50:56;5;5;
79537;PMS5003;68989;52.032;5.152;2023-04-24T12:53:24;5;2;
79537;PMS5003;68989;52.032;5.152;2023-04-24T12:55:51;3;3;
79537;PMS5003;68989;52.032;5.152;2023-04-24T12:58:19;3;3;
79537;PMS5003;68989;52.032;5.152;2023-04-24T13:00:46;5;3;
79537;PMS5003;68989;52.032;5.152;2023-04-24T13:03:13;3;3;
79537;PMS5003;68989;52.032;5.152;2023-04-24T13:05:41;3;2;
79537;PMS5003;68989;52.032;5.152;2023-04-24T13:08:09;5;4;
79537;PMS5003;68989;52.032;5.152;2023-04-24T13:10:36;3;3;
79537;PMS5003;68989;52.032;5.152;2023-04-24T13:13:03;4;4;
79537;PMS5003;68989;52.032;5.152;2023-04-24T13:15:30;6;6;
79537;PMS5003;68989;52.032;5.152;2023-04-24T13:17:57;7;7;
79537;PMS5003;68989;52.032;5.152;2023-04-24T13:20:24;4;3;
79537;PMS5003;68989;52.032;5.152;2023-04-24T13:22:50;3;3;
79537;PMS5003;68989;52.032;5.152;2023-04-24T13:25:17;3;3;
79537;PMS5003;68989;52.032;5.152;2023-04-24T13:27:44;3;3;
79537;PMS5003;68989;52.032;5.152;2023-04-24T13:30:11;5;5;
79537;PMS5003;68989;52.032;5.152;2023-04-24T13:32:38;4;4;
79537;PMS5003;68989;52.032;5.152;2023-04-24T13:35:06;5;4;
79537;PMS5003;68989;52.032;5.152;2023-04-24T13:37:34;3;3;
79537;PMS5003;68989;52.032;5.152;2023-04-24T13:40:01;3;3;
79537;PMS5003;68989;52.032;5.152;2023-04-24T13:42:29;4;4;
79537;PMS5003;68989;52.032;5.152;2023-04-24T13:44:56;4;3;
79537;PMS5003;68989;52.032;5.152;2023-04-24T13:47:22;4;3;
79537;PMS5003;68989;52.032;5.152;2023-04-24T13:49:49;6;4;
79537;PMS5003;68989;52.032;5.152;2023-04-24T13:52:16;3;3;
79537;PMS5003;68989;52.032;5.152;2023-04-24T13:54:43;4;4;
79537;PMS5003;68989;52.032;5.152;2023-04-24T13:57:10;4;4;
79537;PMS5003;68989;52.032;5.152;2023-04-24T13:59:37;5;2;
79537;PMS5003;68989;52.032;5.152;2023-04-24T14:02:05;2;2;
79537;PMS5003;68989;52.032;5.152;2023-04-24T14:04:32;4;4;
79537;PMS5003;68989;52.032;5.152;2023-04-24T14:06:59;5;5;
79537;PMS5003;68989;52.032;5.152;2023-04-24T14:09:26;4;4;
79537;PMS5003;68989;52.032;5.152;2023-04-24T14:11:53;10;7;
79537;PMS5003;68989;52.032;5.152;2023-04-24T14:14:19;6;6;
79537;PMS5003;68989;52.032;5.152;2023-04-24T14:16:46;4;4;
79537;PMS5003;68989;52.032;5.152;2023-04-24T14:19:13;4;4;
79537;PMS5003;68989;52.032;5.152;2023-04-24T14:21:40;5;5;
79537;PMS5003;68989;52.032;5.152;2023-04-24T14:24:07;7;7;
79537;PMS5003;68989;52.032;5.152;2023-04-24T14:26:35;5;5;
79537;PMS5003;68989;52.032;5.152;2023-04-24T14:29:02;6;6;
79537;PMS5003;68989;52.032;5.152;2023-04-24T14:31:29;6;6;
79537;PMS5003;68989;52.032;5.152;2023-04-24T14:33:56;4;3;
79537;PMS5003;68989;52.032;5.152;2023-04-24T14:36:23;6;6;
79537;PMS5003;68989;52.032;5.152;2023-04-24T14:38:50;7;6;
79537;PMS5003;68989;52.032;5.152;2023-04-24T14:41:17;8;5;
79537;PMS5003;68989;52.032;5.152;2023-04-24T14:43:44;5;5;
79537;PMS5003;68989;52.032;5.152;2023-04-24T14:46:11;6;6;
79537;PMS5003;68989;52.032;5.152;2023-04-24T14:48:38;9;6;
79537;PMS5003;68989;52.032;5.152;2023-04-24T14:51:06;6;6;
79537;PMS5003;68989;52.032;5.152;2023-04-24T14:53:33;8;6;
79537;PMS5003;68989;52.032;5.152;2023-04-24T14:56:00;6;6;
79537;PMS5003;68989;52.032;5.152;2023-04-24T14:58:28;8;6;
79537;PMS5003;68989;52.032;5.152;2023-04-24T15:00:55;5;5;
79537;PMS5003;68989;52.032;5.152;2023-04-24T15:03:23;6;6;
79537;PMS5003;68989;52.032;5.152;2023-04-24T15:05:50;6;6;
79537;PMS5003;68989;52.032;5.152;2023-04-24T15:08:17;7;6;
79537;PMS5003;68989;52.032;5.152;2023-04-24T15:10:43;6;6;
79537;PMS5003;68989;52.032;5.152;2023-04-24T15:13:11;5;5;
79537;PMS5003;68989;52.032;5.152;2023-04-24T15:15:38;7;5;
79537;PMS5003;68989;52.032;5.152;2023-04-24T15:18:05;8;5;
79537;PMS5003;68989;52.032;5.152;2023-04-24T15:20:34;6;6;
79537;PMS5003;68989;52.032;5.152;2023-04-24T15:23:01;8;8;
79537;PMS5003;68989;52.032;5.152;2023-04-24T15:25:28;5;5;
79537;PMS5003;68989;52.032;5.152;2023-04-24T15:27:55;7;4;
79537;PMS5003;68989;52.032;5.152;2023-04-24T15:30:22;8;8;
79537;PMS5003;68989;52.032;5.152;2023-04-24T15:32:49;8;7;
79537;PMS5003;68989;52.032;5.152;2023-04-24T15:35:16;8;8;
79537;PMS5003;68989;52.032;5.152;2023-04-24T15:37:43;9;7;
79537;PMS5003;68989;52.032;5.152;2023-04-24T15:40:10;8;6;
79537;PMS5003;68989;52.032;5.152;2023-04-24T15:42:38;6;6;
79537;PMS5003;68989;52.032;5.152;2023-04-24T15:45:05;8;8;
79537;PMS5003;68989;52.032;5.152;2023-04-24T15:47:33;9;9;
79537;PMS5003;68989;52.032;5.152;2023-04-24T15:50:01;8;8;
79537;PMS5003;68989;52.032;5.152;2023-04-24T15:52:28;10;9;
79537;PMS5003;68989;52.032;5.152;2023-04-24T15:54:55;7;7;
79537;PMS5003;68989;52.032;5.152;2023-04-24T15:57:23;7;7;
79537;PMS5003;68989;52.032;5.152;2023-04-24T15:59:50;7;7;
79537;PMS5003;68989;52.032;5.152;2023-04-24T16:02:17;6;6;
79537;PMS5003;68989;52.032;5.152;2023-04-24T16:04:44;6;6;
79537;PMS5003;68989;52.032;5.152;2023-04-24T16:07:11;6;6;
79537;PMS5003;68989;52.032;5.152;2023-04-24T16:09:39;7;6;
79537;PMS5003;68989;52.032;5.152;2023-04-24T16:12:06;9;7;
79537;PMS5003;68989;52.032;5.152;2023-04-24T16:14:34;12;10;
79537;PMS5003;68989;52.032;5.152;2023-04-24T16:17:01;10;6;
79537;PMS5003;68989;52.032;5.152;2023-04-24T16:19:29;7;6;
79537;PMS5003;68989;52.032;5.152;2023-04-24T16:21:56;8;5;
79537;PMS5003;68989;52.032;5.152;2023-04-24T16:24:24;6;6;
79537;PMS5003;68989;52.032;5.152;2023-04-24T16:26:51;5;5;
79537;PMS5003;68989;52.032;5.152;2023-04-24T16:29:20;5;5;
79537;PMS5003;68989;52.032;5.152;2023-04-24T16:31:47;8;7;
79537;PMS5003;68989;52.032;5.152;2023-04-24T16:34:14;7;6;
79537;PMS5003;68989;52.032;5.152;2023-04-24T16:36:41;8;8;
79537;PMS5003;68989;52.032;5.152;2023-04-24T16:39:08;7;7;
79537;PMS5003;68989;52.032;5.152;2023-04-24T16:41:35;9;9;
79537;PMS5003;68989;52.032;5.152;2023-04-24T16:44:03;5;4;
79537;PMS5003;68989;52.032;5.152;2023-04-24T16:46:30;8;8;
79537;PMS5003;68989;52.032;5.152;2023-04-24T16:48:56;8;7;
79537;PMS5003;68989;52.032;5.152;2023-04-24T16:51:23;8;7;